首页
METAR-TAF:

METAR-TAF

机场 :

尼什, 塞尔维亚

纬度: 43-20N, 经度: 021-54E, 海拔: 202米

当前天气观测

该预报发布于24分钟前的19:30 UTC
风速2节,风向多变
温度 20°C
湿度 68%
气压 1007 hPa
能见度10公里或以上
1500米以下无云,无积雨云

METAR: LYNI 051930Z VRB02KT CAVOK 20/14 Q1007 NOSIG

时间: 21:54 (19:54 UTC)

预报

该预报发布于2小时和54分钟前的17:00 UTC
预报有效从05日的 18点(UTC)到 06日的 18点(UTC)
风速5节,风向南转南东
能见度10公里或以上
1500米以下无云,无积雨云
短暂存在
从 06日的 13点(UTC)到 06日的 16点(UTC)
风速15节,风向东转东南
能見度: 4000
散云层高于3300英尺, 积雨云.
多云层高于4300英尺
雷暴, 雨

TAF: LYNI 051700Z 0518/0618 16005KT CAVOK TX27/0613Z TN13/0603Z TEMPO 0613/0616 12015KT 4000 TSRA SCT033CB BKN043

超过4000个机场的气象观测和天气预报(METAR&TAF报告)。

可查询的气象台以黄色和红色小点在地图上表示。

将鼠标移到小点上方,可查看气象台名称。

然后点击查看天气观测和预报。

如需切换地图:点击带黑十字的绿色按钮放大地图;点击带横线的绿色按钮缩小地图;或者点击绿色箭头查看邻近地区的地图。


METAR-TAF: